Time;durP1;ratioP1;P1;durP2;ratioP2;P2;SDS_P1;SDS_P2;PMS_P1;PMS_P2;Temp;Humidity;BMP_temperature;BMP_pressure;BME280_temperature;BME280_humidity;BME280_pressure;Samples;Min_cycle;Max_cycle;Signal;HPM_P1;HPM_P2
2021/11/21 00:01:55;;;;;;;20.27;12.20;;;4.60;99.90;;;;;;5052265;28;20191;-72
2021/11/21 00:04:20;;;;;;;23.10;12.30;;;4.60;99.90;;;;;;5051920;28;20183;-72
2021/11/21 00:06:46;;;;;;;19.80;12.77;;;4.60;99.90;;;;;;5052761;28;20220;-70
2021/11/21 00:09:12;;;;;;;20.80;12.40;;;4.70;99.90;;;;;;5052357;28;20780;-72
2021/11/21 00:11:38;;;;;;;19.53;11.63;;;4.70;99.90;;;;;;5052436;28;20552;-72
2021/11/21 00:14:04;;;;;;;21.27;13.03;;;4.70;99.90;;;;;;5052278;28;20178;-74
2021/11/21 00:16:29;;;;;;;20.30;13.13;;;4.70;99.90;;;;;;5052302;28;20222;-72
2021/11/21 00:18:55;;;;;;;20.27;11.80;;;4.80;99.90;;;;;;5051145;28;20393;-73
2021/11/21 00:21:21;;;;;;;21.30;12.20;;;4.80;99.90;;;;;;5052091;28;20584;-72
2021/11/21 00:23:46;;;;;;;19.43;11.10;;;4.80;99.90;;;;;;5052108;28;20644;-71
2021/11/21 00:26:12;;;;;;;17.37;11.27;;;4.80;99.90;;;;;;5050859;28;20183;-72
2021/11/21 00:28:38;;;;;;;18.60;11.27;;;4.80;99.90;;;;;;5052379;28;20422;-72
2021/11/21 00:31:03;;;;;;;20.17;11.90;;;4.90;99.90;;;;;;5051824;28;20790;-74
2021/11/21 00:33:30;;;;;;;20.70;11.23;;;4.80;99.90;;;;;;5052066;28;20165;-72
2021/11/21 00:35:56;;;;;;;17.37;11.00;;;4.80;99.90;;;;;;5052190;28;20171;-72
2021/11/21 00:38:21;;;;;;;15.77;11.20;;;4.80;99.90;;;;;;5051802;28;20448;-72
2021/11/21 00:40:47;;;;;;;17.33;11.50;;;4.80;99.90;;;;;;5051998;28;20424;-73
2021/11/21 00:43:13;;;;;;;18.00;10.60;;;4.80;99.90;;;;;;5051423;28;20187;-72
2021/11/21 00:45:38;;;;;;;20.00;12.97;;;4.80;99.90;;;;;;5050748;28;20262;-72
2021/11/21 00:48:04;;;;;;;21.63;12.83;;;4.70;99.90;;;;;;5051681;28;20212;-72
2021/11/21 00:50:31;;;;;;;19.30;12.13;;;4.80;99.90;;;;;;5051744;28;20193;-73
2021/11/21 00:53:02;;;;;;;16.10;11.27;;;4.80;99.90;;;;;;5051265;28;20210;-72
2021/11/21 00:55:39;;;;;;;20.30;13.63;;;4.80;99.90;;;;;;5051688;28;20389;-73
2021/11/21 00:58:09;;;;;;;22.87;11.80;;;4.80;99.90;;;;;;5051650;28;20379;-72
2021/11/21 05:32:26;;;;;;;13.93;7.00;;;3.60;99.90;;;;;;5237366;22;20497;-72
2021/11/21 05:34:53;;;;;;;13.50;6.77;;;3.60;99.90;;;;;;4999779;28;20427;-72
2021/11/21 05:37:19;;;;;;;10.97;8.10;;;3.60;99.90;;;;;;5005494;28;20209;-73
2021/11/21 05:39:44;;;;;;;7.73;5.77;;;3.60;99.90;;;;;;5011499;28;20478;-72
2021/11/21 05:42:10;;;;;;;12.63;6.37;;;3.60;99.90;;;;;;5011430;28;20192;-72
2021/11/21 05:44:36;;;;;;;12.40;6.40;;;3.70;99.90;;;;;;5011229;28;20172;-73
2021/11/21 05:47:01;;;;;;;12.23;6.10;;;3.70;99.90;;;;;;5011524;28;20183;-73
2021/11/21 05:49:27;;;;;;;14.77;6.87;;;3.70;99.90;;;;;;5011417;28;20176;-73
2021/11/21 05:51:53;;;;;;;14.93;7.10;;;3.70;99.90;;;;;;5011414;28;20258;-73
2021/11/21 05:54:18;;;;;;;14.17;7.00;;;3.70;99.90;;;;;;5013943;28;20194;-73
2021/11/21 05:56:44;;;;;;;14.37;7.20;;;3.70;99.90;;;;;;5015596;28;20173;-72
2021/11/21 05:59:09;;;;;;;16.73;8.40;;;3.70;99.90;;;;;;5015244;28;20174;-72
2021/11/21 06:01:35;;;;;;;17.97;9.00;;;3.70;99.90;;;;;;5014803;28;20200;-73
2021/11/21 06:04:00;;;;;;;15.50;8.00;;;3.80;99.90;;;;;;5014976;28;20182;-71
2021/11/21 06:06:26;;;;;;;21.03;8.30;;;3.80;99.90;;;;;;5015091;28;20180;-70
2021/11/21 06:08:51;;;;;;;16.47;7.50;;;3.80;99.90;;;;;;5015281;28;20207;-72
2021/11/21 06:11:17;;;;;;;15.20;7.20;;;3.80;99.90;;;;;;5014682;28;20204;-72
2021/11/21 06:13:43;;;;;;;13.93;7.83;;;3.90;99.90;;;;;;5014951;28;20177;-72
2021/11/21 06:16:09;;;;;;;19.23;7.43;;;3.80;99.90;;;;;;5014684;28;20206;-71
2021/11/21 06:18:34;;;;;;;10.73;6.80;;;3.80;99.90;;;;;;5014998;28;20254;-71
2021/11/21 06:21:00;;;;;;;12.97;6.47;;;3.70;99.90;;;;;;5014908;28;20558;-72
2021/11/21 06:23:26;;;;;;;18.13;7.70;;;3.70;99.90;;;;;;5014551;28;20217;-71
2021/11/21 06:25:52;;;;;;;13.47;7.40;;;3.70;99.90;;;;;;5014875;28;20171;-70
2021/11/21 06:28:19;;;;;;;11.57;5.93;;;3.80;99.90;;;;;;5014641;28;20254;-70
2021/11/21 06:30:45;;;;;;;13.83;6.23;;;3.90;99.90;;;;;;4997090;28;20499;-72
2021/11/21 06:33:11;;;;;;;16.40;7.17;;;3.80;99.90;;;;;;5014065;28;20570;-72
2021/11/21 06:35:38;;;;;;;14.17;6.53;;;3.80;99.90;;;;;;5014796;28;20503;-72
2021/11/21 06:38:04;;;;;;;11.53;7.00;;;3.90;99.90;;;;;;5014445;28;20420;-72
2021/11/21 06:40:29;;;;;;;18.20;10.90;;;3.90;99.90;;;;;;5014613;28;20808;-71
2021/11/21 06:42:55;;;;;;;13.30;6.90;;;3.90;99.90;;;;;;5014468;28;20931;-71
2021/11/21 06:45:21;;;;;;;13.30;7.03;;;3.90;99.90;;;;;;5014676;28;20180;-71
2021/11/21 06:47:46;;;;;;;16.93;7.13;;;3.90;99.90;;;;;;5014696;28;20773;-70
2021/11/21 06:50:16;;;;;;;14.07;7.03;;;3.90;99.90;;;;;;5014542;28;20177;-69
2021/11/21 06:52:42;;;;;;;12.53;6.57;;;4.00;99.90;;;;;;5014451;28;20307;-72
2021/11/21 06:55:10;;;;;;;13.77;7.00;;;4.10;99.90;;;;;;5014120;28;20991;-72
2021/11/21 06:57:36;;;;;;;12.80;7.40;;;4.10;99.90;;;;;;5014584;28;20435;-73
2021/11/21 07:00:08;;;;;;;20.30;7.27;;;4.10;99.90;;;;;;5014101;28;20427;-72
2021/11/21 07:02:34;;;;;;;11.03;7.63;;;4.10;99.90;;;;;;5014352;28;20201;-72
2021/11/21 07:04:59;;;;;;;18.20;7.10;;;4.10;99.90;;;;;;5013636;28;20833;-72
2021/11/21 07:07:25;;;;;;;16.60;7.87;;;4.20;99.90;;;;;;5014321;28;20175;-72
2021/11/21 07:09:50;;;;;;;14.27;7.10;;;4.20;99.90;;;;;;5014157;28;20180;-72
2021/11/21 07:12:16;;;;;;;13.80;7.27;;;4.10;99.90;;;;;;5014027;28;20225;-72
2021/11/21 07:14:42;;;;;;;15.97;8.10;;;4.20;99.90;;;;;;5013951;28;20171;-72
2021/11/21 07:17:07;;;;;;;14.63;8.60;;;4.20;99.90;;;;;;5014114;28;20184;-73
2021/11/21 07:19:33;;;;;;;15.60;7.63;;;4.20;99.90;;;;;;5013947;28;20251;-72
2021/11/21 07:21:59;;;;;;;12.40;6.00;;;4.20;99.90;;;;;;5014029;28;20222;-72
2021/11/21 07:24:25;;;;;;;17.27;7.67;;;4.30;99.90;;;;;;5013862;28;20255;-72
2021/11/21 07:26:50;;;;;;;12.40;7.40;;;4.30;99.90;;;;;;5013830;28;20180;-72
2021/11/21 07:29:16;;;;;;;16.43;7.97;;;4.30;99.90;;;;;;4996148;28;20448;-72
2021/11/21 07:31:42;;;;;;;14.73;7.57;;;4.40;99.90;;;;;;5013610;28;20594;-71
2021/11/21 07:34:07;;;;;;;13.67;7.97;;;4.40;99.90;;;;;;5014255;28;20251;-72
2021/11/21 07:36:33;;;;;;;18.93;9.87;;;4.40;99.90;;;;;;5014231;28;20539;-72
2021/11/21 07:38:59;;;;;;;19.10;10.20;;;4.40;99.90;;;;;;5014358;28;20183;-72
2021/11/21 07:41:25;;;;;;;18.67;9.90;;;4.40;99.90;;;;;;5014278;28;20434;-71
2021/11/21 07:43:50;;;;;;;16.60;9.33;;;4.50;99.90;;;;;;5014135;28;20619;-70
2021/11/21 07:46:17;;;;;;;20.50;9.83;;;4.50;99.90;;;;;;5014202;28;20807;-71
2021/11/21 07:48:42;;;;;;;18.60;10.50;;;4.50;99.90;;;;;;5013985;28;20184;-70
2021/11/21 07:51:08;;;;;;;23.17;12.43;;;4.50;99.90;;;;;;5013771;28;21012;-71
2021/11/21 07:53:34;;;;;;;24.43;13.83;;;4.40;99.90;;;;;;5013711;28;20180;-71
2021/11/21 07:55:59;;;;;;;27.97;14.57;;;4.30;99.90;;;;;;5013875;28;20223;-71
2021/11/21 07:58:25;;;;;;;26.77;14.57;;;4.30;99.90;;;;;;5013149;28;21363;-71
2021/11/21 08:00:51;;;;;;;29.10;15.10;;;4.30;99.90;;;;;;5013578;28;20202;-72
2021/11/21 08:03:16;;;;;;;29.03;15.10;;;4.20;99.90;;;;;;5013699;28;20234;-71
2021/11/21 08:05:42;;;;;;;25.63;14.03;;;4.20;99.90;;;;;;5013925;28;20453;-71
2021/11/21 08:08:08;;;;;;;33.23;16.10;;;4.30;99.90;;;;;;5013715;28;20178;-72
2021/11/21 08:10:35;;;;;;;34.13;15.77;;;4.20;99.90;;;;;;5013701;28;20420;-71
2021/11/21 08:13:01;;;;;;;35.10;16.83;;;4.20;99.90;;;;;;5012827;28;20215;-72
2021/11/21 08:15:26;;;;;;;30.47;16.17;;;4.20;99.90;;;;;;5012353;28;20761;-71
2021/11/21 08:17:52;;;;;;;32.83;17.00;;;4.20;99.90;;;;;;5012883;28;20649;-72
2021/11/21 08:20:18;;;;;;;31.23;15.63;;;4.20;99.90;;;;;;5012823;28;20263;-71
2021/11/21 08:22:43;;;;;;;30.00;15.90;;;4.10;99.90;;;;;;5012406;28;20203;-69
2021/11/21 08:25:10;;;;;;;29.50;15.43;;;4.20;99.90;;;;;;5012715;28;20547;-72
2021/11/21 08:27:37;;;;;;;31.70;15.40;;;4.10;99.90;;;;;;5012881;28;20197;-73
2021/11/21 08:30:04;;;;;;;32.60;17.07;;;4.10;99.90;;;;;;5012478;28;20418;-73
2021/11/21 08:32:30;;;;;;;35.37;16.93;;;4.20;99.90;;;;;;5012501;28;21031;-72
2021/11/21 08:34:55;;;;;;;33.27;15.87;;;4.20;99.90;;;;;;5012655;28;20414;-72
2021/11/21 08:37:21;;;;;;;29.87;15.20;;;4.10;99.90;;;;;;5012541;28;20172;-72
2021/11/21 08:39:46;;;;;;;32.03;14.90;;;4.10;99.90;;;;;;5012299;28;20229;-72
2021/11/21 08:42:12;;;;;;;26.40;15.43;;;4.20;99.90;;;;;;5012181;28;20232;-73
2021/11/21 08:44:37;;;;;;;32.00;15.30;;;4.20;99.90;;;;;;5012195;28;20198;-72
2021/11/21 08:47:03;;;;;;;28.00;15.23;;;4.30;99.90;;;;;;5012702;28;20534;-71
2021/11/21 08:49:28;;;;;;;25.30;15.20;;;4.30;99.90;;;;;;5012256;28;20230;-71
2021/11/21 08:51:54;;;;;;;23.57;13.83;;;4.30;99.90;;;;;;5012398;28;20208;-70
2021/11/21 08:54:20;;;;;;;25.70;12.97;;;4.20;99.90;;;;;;5011997;28;20178;-72
2021/11/21 08:56:47;;;;;;;24.20;12.30;;;4.30;99.90;;;;;;5012508;28;20175;-72
2021/11/21 08:59:14;;;;;;;18.13;10.80;;;4.30;99.90;;;;;;4995843;28;20217;-72
2021/11/21 09:01:41;;;;;;;20.60;11.93;;;4.40;99.90;;;;;;5010936;28;20478;-71
2021/11/21 09:04:08;;;;;;;17.93;10.50;;;4.40;99.90;;;;;;5023557;28;20440;-71
2021/11/21 09:06:33;;;;;;;20.20;11.80;;;4.40;99.90;;;;;;5012208;28;20450;-72
2021/11/21 09:08:59;;;;;;;20.10;12.37;;;4.40;99.90;;;;;;5005879;28;20530;-72
2021/11/21 09:11:25;;;;;;;17.27;10.47;;;4.40;99.90;;;;;;4992348;28;20579;-72
2021/11/21 09:13:50;;;;;;;16.80;10.03;;;4.50;99.90;;;;;;5000910;28;20306;-72
2021/11/21 09:16:16;;;;;;;18.53;9.20;;;4.50;99.90;;;;;;5011873;28;20247;-70
2021/11/21 09:18:42;;;;;;;16.13;8.97;;;4.50;99.90;;;;;;5011533;28;20711;-72
2021/11/21 09:21:07;;;;;;;15.23;8.07;;;4.50;99.90;;;;;;4998970;28;20231;-72
2021/11/21 09:23:33;;;;;;;15.60;8.80;;;4.60;99.90;;;;;;5023359;28;20223;-72
2021/11/21 09:25:58;;;;;;;12.83;8.30;;;4.60;99.90;;;;;;5011318;28;20214;-71
2021/11/21 09:28:25;;;;;;;15.20;8.63;;;4.50;99.90;;;;;;5011223;28;20716;-71
2021/11/21 09:30:52;;;;;;;14.73;8.60;;;4.60;99.90;;;;;;5003654;28;20208;-72
2021/11/21 09:33:18;;;;;;;13.23;8.00;;;4.60;99.90;;;;;;5006384;28;20495;-69
2021/11/21 09:35:45;;;;;;;15.33;9.20;;;4.60;99.90;;;;;;5010972;28;20840;-69
2021/11/21 09:38:11;;;;;;;12.50;8.53;;;4.60;99.90;;;;;;4993943;28;20224;-72
2021/11/21 09:40:37;;;;;;;16.33;9.30;;;4.70;99.90;;;;;;5023881;28;20462;-71
2021/11/21 09:43:03;;;;;;;18.80;9.70;;;4.60;99.90;;;;;;4983073;28;20455;-72
2021/11/21 09:45:28;;;;;;;16.00;9.13;;;4.60;99.90;;;;;;5011792;28;20216;-72
2021/11/21 09:47:58;;;;;;;16.37;10.20;;;4.70;99.90;;;;;;5012126;28;20431;-73
2021/11/21 09:50:24;;;;;;;15.77;8.77;;;4.70;99.90;;;;;;5012392;28;20210;-72
2021/11/21 09:52:51;;;;;;;16.97;9.30;;;4.70;99.90;;;;;;5011481;28;20442;-70
2021/11/21 09:55:18;;;;;;;19.80;10.10;;;4.70;99.90;;;;;;5011494;28;20483;-71
2021/11/21 09:57:44;;;;;;;16.27;8.93;;;4.70;99.90;;;;;;5011050;28;20510;-71
2021/11/21 10:00:15;;;;;;;12.43;8.80;;;4.70;99.90;;;;;;5007075;28;20533;-73
2021/11/21 10:02:59;;;;;;;14.03;8.60;;;4.70;99.90;;;;;;5003175;28;20433;-72
2021/11/21 10:05:30;;;;;;;16.77;9.63;;;4.70;99.90;;;;;;5009522;28;20974;-68
2021/11/21 10:08:08;;;;;;;15.97;9.20;;;4.70;99.90;;;;;;5010592;28;20831;-70
2021/11/21 10:10:37;;;;;;;17.30;9.60;;;4.80;99.90;;;;;;5005345;28;20498;-70
2021/11/21 10:13:02;;;;;;;18.50;10.60;;;4.80;99.90;;;;;;5004110;28;20548;-71
2021/11/21 10:15:28;;;;;;;17.00;10.07;;;4.80;99.90;;;;;;5004397;28;20459;-70
2021/11/21 10:17:55;;;;;;;23.33;10.80;;;4.80;99.90;;;;;;5010581;28;20212;-72
2021/11/21 10:20:29;;;;;;;22.20;9.83;;;4.80;99.90;;;;;;5010661;28;20220;-73
2021/11/21 10:23:01;;;;;;;15.73;9.20;;;4.80;99.90;;;;;;5013635;28;20454;-72
2021/11/21 10:25:33;;;;;;;15.23;9.27;;;4.80;99.90;;;;;;5010819;28;20519;-72
2021/11/21 10:28:14;;;;;;;19.17;10.73;;;4.80;99.90;;;;;;5018301;28;20960;-71
2021/11/21 10:30:58;;;;;;;17.30;9.87;;;4.70;99.90;;;;;;4995830;28;20456;-72
2021/11/21 10:33:27;;;;;;;22.83;11.03;;;4.70;99.90;;;;;;5025414;28;21019;-71
2021/11/21 10:36:14;;;;;;;14.20;9.40;;;4.70;99.90;;;;;;5020561;28;20531;-72
2021/11/21 10:38:52;;;;;;;21.30;11.90;;;4.60;99.90;;;;;;5017373;28;21007;-71
2021/11/21 10:41:33;;;;;;;17.30;9.00;;;4.60;99.90;;;;;;5021777;28;20573;-71
2021/11/21 10:44:03;;;;;;;16.03;9.30;;;4.60;99.90;;;;;;5020765;28;20559;-72
2021/11/21 10:46:37;;;;;;;13.13;8.40;;;4.60;99.90;;;;;;5008373;28;20459;-71
2021/11/21 10:49:16;;;;;;;14.40;8.30;;;4.60;99.90;;;;;;5003627;28;20482;-72
2021/11/21 10:51:43;;;;;;;14.77;8.77;;;4.60;99.90;;;;;;5026234;28;20476;-70
2021/11/21 10:54:23;;;;;;;14.13;7.83;;;4.60;99.90;;;;;;5026139;28;20573;-71
2021/11/21 10:56:51;;;;;;;16.10;8.90;;;4.70;99.90;;;;;;5012806;28;20425;-72
2021/11/21 10:59:59;;;;;;;14.90;7.77;;;4.70;99.90;;;;;;5004097;28;20481;-71
2021/11/21 11:02:40;;;;;;;14.03;8.13;;;4.60;99.90;;;;;;5005468;28;20457;-72
2021/11/21 11:05:09;;;;;;;13.47;7.50;;;4.60;99.90;;;;;;5003605;28;20469;-71
2021/11/21 11:07:43;;;;;;;13.60;9.77;;;4.50;99.90;;;;;;4979682;28;20453;-71
2021/11/21 11:10:35;;;;;;;15.13;8.43;;;4.60;99.90;;;;;;5003945;28;20475;-72
2021/11/21 11:13:11;;;;;;;9.33;6.37;;;4.70;99.90;;;;;;5013175;28;20553;-71
2021/11/21 11:15:40;;;;;;;13.17;6.70;;;4.60;99.90;;;;;;5013576;28;20448;-72
2021/11/21 11:18:10;;;;;;;13.40;8.17;;;4.60;99.90;;;;;;5015303;28;20440;-70
2021/11/21 11:20:49;;;;;;;12.77;7.93;;;4.60;99.90;;;;;;5008989;28;20888;-72
2021/11/21 11:23:17;;;;;;;20.73;9.10;;;4.60;99.90;;;;;;5015802;28;20468;-71
2021/11/21 11:25:44;;;;;;;15.07;7.47;;;4.70;99.90;;;;;;5011794;28;20468;-71
2021/11/21 11:28:23;;;;;;;15.60;8.10;;;4.60;99.90;;;;;;4984036;28;20459;-71
2021/11/21 11:30:49;;;;;;;14.60;8.10;;;4.60;99.90;;;;;;5001698;28;20447;-71
2021/11/21 11:33:18;;;;;;;16.23;8.73;;;4.60;99.90;;;;;;5012650;28;20472;-72
2021/11/21 11:35:46;;;;;;;12.23;7.77;;;4.60;99.90;;;;;;5013526;28;20679;-72
2021/11/21 11:38:18;;;;;;;13.50;8.03;;;4.60;99.90;;;;;;5011630;28;20444;-71
2021/11/21 11:40:53;;;;;;;12.60;7.43;;;4.60;99.90;;;;;;5013360;28;20450;-71
2021/11/21 11:43:19;;;;;;;12.40;7.07;;;4.60;99.90;;;;;;5000883;28;20455;-70
2021/11/21 11:45:54;;;;;;;12.07;7.30;;;4.60;99.90;;;;;;5010014;28;20518;-71
2021/11/21 11:48:32;;;;;;;16.90;8.67;;;4.70;99.90;;;;;;5008834;28;20533;-72
2021/11/21 11:51:15;;;;;;;13.63;7.63;;;4.60;99.90;;;;;;5016880;28;20481;-71
2021/11/21 11:53:49;;;;;;;14.80;8.50;;;4.70;99.90;;;;;;4993354;28;20449;-72
2021/11/21 11:56:24;;;;;;;8.17;5.83;;;4.70;99.90;;;;;;5001601;28;20546;-71
2021/11/21 11:58:56;;;;;;;10.20;6.23;;;4.70;99.90;;;;;;5011854;28;20453;-71
2021/11/21 12:01:39;;;;;;;11.17;6.63;;;4.70;99.90;;;;;;5011005;28;20459;-71
2021/11/21 12:04:17;;;;;;;10.97;6.80;;;4.70;99.90;;;;;;5000412;28;20467;-72
2021/11/21 12:06:51;;;;;;;13.80;8.00;;;4.90;99.90;;;;;;4994993;28;20478;-70
2021/11/21 12:09:19;;;;;;;11.53;6.40;;;4.80;99.90;;;;;;5013159;28;20819;-72
2021/11/21 12:12:08;;;;;;;10.63;6.33;;;5.00;99.90;;;;;;5013113;28;20475;-72
2021/11/21 12:14:39;;;;;;;11.03;6.83;;;5.10;99.90;;;;;;4999013;28;20467;-73
2021/11/21 12:17:09;;;;;;;9.40;5.97;;;5.20;99.90;;;;;;5012157;28;20548;-73
2021/11/21 12:19:38;;;;;;;8.33;5.40;;;5.20;99.90;;;;;;5012345;28;20511;-73
2021/11/21 12:22:05;;;;;;;8.70;6.00;;;5.20;99.90;;;;;;5017310;28;20471;-70
2021/11/21 12:24:32;;;;;;;7.97;5.73;;;5.30;99.90;;;;;;5008514;28;20843;-72
2021/11/21 12:26:59;;;;;;;8.67;6.43;;;5.30;99.90;;;;;;5010658;28;20464;-72
2021/11/21 12:29:33;;;;;;;6.90;5.27;;;5.40;99.90;;;;;;5012215;28;20551;-72
2021/11/21 12:32:25;;;;;;;8.60;5.50;;;5.30;99.90;;;;;;5015183;28;20560;-71
2021/11/21 12:34:51;;;;;;;6.10;4.53;;;5.40;99.90;;;;;;4996290;28;20455;-73
2021/11/21 12:37:30;;;;;;;5.70;4.40;;;5.40;99.90;;;;;;4989330;28;20469;-72
2021/11/21 12:40:09;;;;;;;7.30;4.90;;;5.40;99.90;;;;;;5012184;28;20225;-73
2021/11/21 12:42:37;;;;;;;5.90;3.80;;;5.50;99.90;;;;;;5000582;28;20475;-73
2021/11/21 12:45:04;;;;;;;6.63;4.73;;;5.50;99.90;;;;;;5011351;28;20430;-73
2021/11/21 12:47:30;;;;;;;6.30;3.90;;;5.60;99.90;;;;;;5000868;28;20449;-72
2021/11/21 12:49:56;;;;;;;5.70;3.93;;;5.60;99.90;;;;;;5003896;28;20464;-73
2021/11/21 12:52:22;;;;;;;8.03;5.20;;;5.60;99.90;;;;;;5005623;28;20216;-72
2021/11/21 12:54:51;;;;;;;6.00;4.27;;;5.50;99.90;;;;;;5011252;28;20235;-73
2021/11/21 12:57:17;;;;;;;8.67;4.30;;;5.60;99.90;;;;;;5009316;28;20304;-73
2021/11/21 12:59:51;;;;;;;6.67;4.40;;;5.60;99.90;;;;;;5002083;28;20575;-72
2021/11/21 13:02:22;;;;;;;7.67;5.30;;;5.60;99.90;;;;;;5010908;28;20581;-73
2021/11/21 13:04:59;;;;;;;6.43;4.67;;;5.60;99.90;;;;;;5011056;28;20471;-72
2021/11/21 13:07:28;;;;;;;5.27;4.03;;;5.60;99.90;;;;;;5012393;28;21093;-73
2021/11/21 13:10:07;;;;;;;7.27;4.53;;;5.60;99.90;;;;;;5005332;28;20471;-72
2021/11/21 13:12:39;;;;;;;9.30;5.80;;;5.60;99.90;;;;;;5006342;28;20562;-73
2021/11/21 13:15:07;;;;;;;7.03;4.73;;;5.60;99.90;;;;;;5011462;28;20513;-73
2021/11/21 13:17:33;;;;;;;5.57;4.77;;;5.60;99.90;;;;;;5011589;28;20423;-72
2021/11/21 13:20:11;;;;;;;7.00;4.47;;;5.60;99.90;;;;;;5000420;28;20432;-72
2021/11/21 13:22:59;;;;;;;8.03;4.93;;;5.60;99.90;;;;;;5001223;28;20233;-72
2021/11/21 13:25:35;;;;;;;7.60;4.63;;;5.60;99.90;;;;;;5011274;28;20523;-72
2021/11/21 13:28:23;;;;;;;11.17;4.80;;;5.60;99.90;;;;;;5011469;28;20539;-72
2021/11/21 13:30:50;;;;;;;8.90;5.37;;;5.60;99.90;;;;;;5000422;28;20494;-73
2021/11/21 13:33:21;;;;;;;8.90;5.57;;;5.60;99.90;;;;;;5022342;28;20472;-73
2021/11/21 13:35:54;;;;;;;8.23;3.90;;;5.70;99.90;;;;;;5012757;28;20468;-72
2021/11/21 13:38:22;;;;;;;6.20;5.03;;;5.60;99.90;;;;;;5011554;28;20453;-73
2021/11/21 13:40:49;;;;;;;4.40;4.00;;;5.60;99.90;;;;;;5007645;28;20551;-71
2021/11/21 13:43:15;;;;;;;7.90;4.87;;;5.60;99.90;;;;;;4985500;28;20459;-71
2021/11/21 13:45:41;;;;;;;7.23;4.70;;;5.70;99.90;;;;;;5031167;28;20564;-72
2021/11/21 13:48:46;;;;;;;6.30;5.30;;;5.60;99.90;;;;;;5016937;28;20456;-71
2021/11/21 13:51:26;;;;;;;9.03;5.00;;;5.70;99.90;;;;;;5005679;28;20461;-72
2021/11/21 13:53:52;;;;;;;6.80;5.00;;;5.70;99.90;;;;;;5001836;28;20438;-72
2021/11/21 13:56:20;;;;;;;5.77;4.30;;;5.70;99.90;;;;;;5011502;28;20497;-71
2021/11/21 13:58:47;;;;;;;6.03;4.30;;;5.60;99.90;;;;;;5012061;28;20427;-70
2021/11/21 14:01:22;;;;;;;5.60;3.50;;;5.60;99.90;;;;;;5020267;28;20468;-71
2021/11/21 14:03:55;;;;;;;5.43;4.03;;;5.60;99.90;;;;;;5013879;28;20810;-71
2021/11/21 14:06:31;;;;;;;6.00;4.00;;;5.70;99.90;;;;;;5011374;28;20464;-72
2021/11/21 14:08:56;;;;;;;4.70;4.20;;;5.60;99.90;;;;;;5003614;28;20437;-69
2021/11/21 14:11:32;;;;;;;5.70;3.93;;;5.60;99.90;;;;;;5010931;28;20594;-70
2021/11/21 14:14:20;;;;;;;5.63;3.90;;;5.60;99.90;;;;;;5002557;28;20582;-70
2021/11/21 14:16:48;;;;;;;4.90;3.60;;;5.60;99.90;;;;;;5014093;28;20462;-71
2021/11/21 14:19:32;;;;;;;3.97;2.97;;;5.60;99.90;;;;;;5027000;28;20535;-71
2021/11/21 14:22:08;;;;;;;4.90;3.23;;;5.60;99.90;;;;;;5012358;28;20437;-72
2021/11/21 14:24:35;;;;;;;4.53;3.53;;;5.60;99.90;;;;;;5006217;28;20963;-71
2021/11/21 14:27:28;;;;;;;4.00;3.23;;;5.60;99.90;;;;;;5000959;28;20454;-70
2021/11/21 14:30:09;;;;;;;5.90;5.30;;;5.60;99.90;;;;;;5011350;28;20533;-71
2021/11/21 14:32:38;;;;;;;7.90;4.60;;;5.50;99.90;;;;;;5009447;28;20465;-71
2021/11/21 14:35:21;;;;;;;9.47;6.30;;;5.50;99.90;;;;;;5009616;28;20476;-69
2021/11/21 14:37:47;;;;;;;4.77;3.40;;;5.40;99.90;;;;;;5009747;28;20448;-69
2021/11/21 14:40:18;;;;;;;9.97;6.10;;;5.40;99.90;;;;;;5014538;28;20829;-71
2021/11/21 14:42:52;;;;;;;5.00;4.50;;;5.40;99.90;;;;;;5014741;28;20505;-69
2021/11/21 14:45:18;;;;;;;5.43;4.87;;;5.40;99.90;;;;;;5014683;28;20549;-70
2021/11/21 14:47:44;;;;;;;5.50;4.43;;;5.40;99.90;;;;;;4995672;28;20536;-71
2021/11/21 14:50:11;;;;;;;9.17;6.50;;;5.40;99.90;;;;;;5024939;28;20229;-70
2021/11/21 14:52:37;;;;;;;5.33;4.83;;;5.40;99.90;;;;;;5023878;28;20534;-70
2021/11/21 14:55:06;;;;;;;10.97;5.10;;;5.40;99.90;;;;;;5014849;28;20462;-70
2021/11/21 14:57:39;;;;;;;5.67;4.73;;;5.40;99.90;;;;;;5015020;28;20196;-70
2021/11/21 15:00:06;;;;;;;7.37;4.30;;;5.40;99.90;;;;;;5002662;28;20470;-70
2021/11/21 15:02:32;;;;;;;6.73;4.87;;;5.40;99.90;;;;;;5026703;28;20452;-70
2021/11/21 15:04:57;;;;;;;5.20;4.37;;;5.40;99.90;;;;;;5014680;28;20797;-70
2021/11/21 15:07:23;;;;;;;6.90;4.80;;;5.40;99.90;;;;;;5016858;28;20221;-71
2021/11/21 15:09:48;;;;;;;6.67;4.03;;;5.40;99.90;;;;;;5014552;28;20215;-71
2021/11/21 15:12:14;;;;;;;8.27;5.83;;;5.40;99.90;;;;;;5013893;28;20216;-69
2021/11/21 15:14:39;;;;;;;11.27;8.07;;;5.40;99.90;;;;;;5010450;28;20247;-69
2021/11/21 15:17:05;;;;;;;7.17;5.73;;;5.30;99.90;;;;;;5022821;28;20655;-70
2021/11/21 15:19:30;;;;;;;7.20;6.10;;;5.40;99.90;;;;;;5005417;28;20589;-71
2021/11/21 15:21:56;;;;;;;21.63;12.50;;;5.40;99.90;;;;;;5023021;28;20229;-70
2021/11/21 15:24:22;;;;;;;10.93;7.73;;;5.30;99.90;;;;;;5017816;28;20292;-71
2021/11/21 15:26:49;;;;;;;16.37;8.83;;;5.20;99.90;;;;;;5013855;28;20231;-71
2021/11/21 15:29:16;;;;;;;8.70;7.70;;;5.20;99.90;;;;;;4994589;28;20204;-70
2021/11/21 15:31:45;;;;;;;8.70;5.30;;;5.20;99.90;;;;;;4994828;28;20488;-70
2021/11/21 15:34:13;;;;;;;8.30;6.73;;;5.20;99.90;;;;;;5025072;28;20436;-71
2021/11/21 15:36:39;;;;;;;7.00;5.40;;;5.20;99.90;;;;;;5017665;28;20440;-70
2021/11/21 15:39:05;;;;;;;8.90;7.07;;;5.20;99.90;;;;;;5021603;28;20971;-71
2021/11/21 15:41:31;;;;;;;5.90;5.03;;;5.20;99.90;;;;;;5017420;28;20453;-71
2021/11/21 15:43:59;;;;;;;5.57;4.60;;;5.20;99.90;;;;;;5033471;28;20261;-69
2021/11/21 15:46:27;;;;;;;4.70;4.20;;;5.20;99.90;;;;;;5026058;28;20240;-71
2021/11/21 15:48:53;;;;;;;5.60;4.43;;;5.30;99.90;;;;;;5013876;28;20835;-70
2021/11/21 15:51:19;;;;;;;5.67;4.57;;;5.30;99.90;;;;;;5013502;28;20459;-70
2021/11/21 15:53:45;;;;;;;7.27;5.83;;;5.30;99.90;;;;;;5013337;28;20445;-69
2021/11/21 15:56:13;;;;;;;6.03;4.60;;;5.20;99.90;;;;;;5012455;28;20549;-70
2021/11/21 15:58:38;;;;;;;7.23;5.47;;;5.20;99.90;;;;;;5012430;28;20263;-72
2021/11/21 16:01:04;;;;;;;6.77;4.83;;;5.20;99.90;;;;;;5012003;28;21274;-72
2021/11/21 16:03:30;;;;;;;5.57;4.87;;;5.20;99.90;;;;;;4994133;28;20216;-73
2021/11/21 16:05:56;;;;;;;7.30;5.00;;;5.10;99.90;;;;;;5012053;28;20533;-73
2021/11/21 16:08:22;;;;;;;6.13;4.70;;;5.10;99.90;;;;;;5012047;28;20545;-73
2021/11/21 16:10:49;;;;;;;6.20;4.70;;;5.10;99.90;;;;;;5012028;28;20435;-72
2021/11/21 16:13:15;;;;;;;4.90;4.50;;;5.20;99.90;;;;;;5001506;28;20223;-73
2021/11/21 16:15:41;;;;;;;7.13;5.87;;;5.10;99.90;;;;;;5010051;28;20848;-74
2021/11/21 16:18:06;;;;;;;6.57;5.00;;;5.00;99.90;;;;;;5011648;28;20463;-73
2021/11/21 16:20:32;;;;;;;6.10;4.77;;;5.10;99.90;;;;;;5011988;28;20469;-73
2021/11/21 16:22:58;;;;;;;7.80;4.63;;;5.10;99.90;;;;;;5010482;28;20219;-73
2021/11/21 16:25:23;;;;;;;9.73;5.97;;;5.10;99.90;;;;;;5000218;28;20258;-73
2021/11/21 16:27:49;;;;;;;6.20;4.70;;;5.10;99.90;;;;;;5011914;28;20213;-74
2021/11/21 16:30:18;;;;;;;9.23;5.30;;;5.10;99.90;;;;;;5011498;28;20223;-73
2021/11/21 16:32:43;;;;;;;6.63;5.17;;;5.10;99.90;;;;;;5011426;28;20443;-70
2021/11/21 16:35:10;;;;;;;5.87;5.20;;;5.10;99.90;;;;;;5000190;28;21045;-73
2021/11/21 16:37:36;;;;;;;7.67;5.50;;;5.10;99.90;;;;;;5010545;28;20224;-74
2021/11/21 16:40:04;;;;;;;10.80;6.43;;;5.10;99.90;;;;;;5011535;28;20539;-73
2021/11/21 16:42:30;;;;;;;6.80;5.37;;;5.10;99.90;;;;;;5011460;28;20472;-73
2021/11/21 16:44:56;;;;;;;5.40;4.90;;;5.20;99.90;;;;;;5008505;28;20461;-73
2021/11/21 16:47:21;;;;;;;10.70;5.73;;;5.20;99.90;;;;;;5002505;28;20231;-73
2021/11/21 16:49:47;;;;;;;10.03;6.00;;;5.10;99.90;;;;;;5011636;28;20217;-73
2021/11/21 16:52:13;;;;;;;6.37;4.67;;;5.20;99.90;;;;;;5010889;28;20230;-73
2021/11/21 16:54:39;;;;;;;5.73;4.80;;;5.20;99.90;;;;;;5011574;28;20769;-73
2021/11/21 16:57:05;;;;;;;26.87;15.67;;;5.10;99.90;;;;;;4992183;28;20212;-74
2021/11/21 16:59:34;;;;;;;9.97;6.80;;;5.20;99.90;;;;;;5000798;28;20451;-73
2021/11/21 17:02:04;;;;;;;7.10;5.30;;;5.20;99.90;;;;;;4972797;28;20482;-73
2021/11/21 17:04:30;;;;;;;7.40;6.20;;;5.20;99.90;;;;;;5004449;28;20448;-74
2021/11/21 17:06:56;;;;;;;8.20;6.63;;;5.20;99.90;;;;;;5005805;28;20521;-74
2021/11/21 17:09:22;;;;;;;8.63;6.83;;;5.20;99.90;;;;;;5004597;28;20460;-74
2021/11/21 17:11:51;;;;;;;9.97;8.03;;;5.20;99.90;;;;;;5011327;28;21012;-75
2021/11/21 17:14:17;;;;;;;8.63;7.20;;;5.20;99.90;;;;;;5010719;28;20866;-73
2021/11/21 17:16:42;;;;;;;10.17;7.13;;;5.20;99.90;;;;;;4993583;28;20483;-74
2021/11/21 17:19:08;;;;;;;8.70;6.83;;;5.20;99.90;;;;;;4998630;28;20955;-75
2021/11/21 17:21:35;;;;;;;11.00;7.20;;;5.20;99.90;;;;;;5011117;28;20225;-71
2021/11/21 17:24:00;;;;;;;8.33;6.77;;;5.20;99.90;;;;;;5010924;28;20898;-73
2021/11/21 17:26:26;;;;;;;8.80;6.60;;;5.20;99.90;;;;;;5010781;28;20462;-74
2021/11/21 17:28:53;;;;;;;9.93;6.23;;;5.20;99.90;;;;;;5003312;28;20210;-74